Time;durP1;ratioP1;P1;durP2;ratioP2;P2;SDS_P1;SDS_P2;PMS_P1;PMS_P2;Temp;Humidity;BMP_temperature;BMP_pressure;BME280_temperature;BME280_humidity;BME280_pressure;Samples;Min_cycle;Max_cycle;Signal;HPM_P1;HPM_P2
2022/07/21 00:02:11;;;;;;;9.23;2.10;;;;;;;18.45;58.72;101555.38;5039062;28;20035;-46
2022/07/21 00:04:37;;;;;;;4.97;1.55;;;;;;;18.52;58.08;101547.09;5050427;28;20459;-43
2022/07/21 00:07:03;;;;;;;6.25;2.05;;;;;;;18.39;58.38;101545.50;5052268;28;20104;-44
2022/07/21 00:09:30;;;;;;;5.60;2.00;;;;;;;18.24;58.72;101549.78;5054595;28;20469;-45
2022/07/21 00:11:56;;;;;;;7.15;2.42;;;;;;;17.77;60.52;101544.44;5053096;28;20032;-47
2022/07/21 00:14:22;;;;;;;6.32;2.05;;;;;;;17.66;60.70;101551.47;5051674;28;20025;-43
2022/07/21 00:16:48;;;;;;;8.02;2.53;;;;;;;17.82;60.82;101552.66;5054009;28;20025;-46
2022/07/21 00:19:15;;;;;;;7.20;2.20;;;;;;;17.85;60.14;101549.50;5043319;28;20036;-45
2022/07/21 00:21:41;;;;;;;3.20;1.63;;;;;;;17.87;60.35;101547.34;5042446;28;20037;-46
2022/07/21 00:24:07;;;;;;;6.22;2.10;;;;;;;17.64;60.84;101537.34;5043521;28;20060;-44
2022/07/21 00:26:34;;;;;;;5.95;2.15;;;;;;;17.48;61.29;101541.56;5037985;28;20091;-47
2022/07/21 00:29:00;;;;;;;8.93;2.30;;;;;;;17.35;61.63;101548.03;5034961;28;20036;-46
2022/07/21 00:31:26;;;;;;;3.88;2.10;;;;;;;17.36;62.01;101536.16;5042774;28;20098;-46
2022/07/21 00:33:53;;;;;;;10.38;1.98;;;;;;;17.34;62.76;101546.41;5034433;28;21967;-43
2022/07/21 00:36:20;;;;;;;4.50;1.67;;;;;;;17.20;62.68;101536.84;5038242;28;20025;-43
2022/07/21 00:38:47;;;;;;;11.48;2.20;;;;;;;17.12;63.90;101537.19;5053322;28;20029;-44
2022/07/21 00:41:13;;;;;;;8.23;1.90;;;;;;;16.95;64.04;101531.63;5048815;28;20025;-47
2022/07/21 00:43:40;;;;;;;4.85;1.80;;;;;;;16.88;63.89;101530.91;5037101;28;20046;-44
2022/07/21 00:46:06;;;;;;;7.95;2.40;;;;;;;16.88;64.21;101531.72;5035050;28;20029;-45
2022/07/21 00:48:32;;;;;;;5.00;1.58;;;;;;;16.92;64.42;101529.38;5039660;28;20508;-47
2022/07/21 00:50:59;;;;;;;3.47;1.67;;;;;;;16.89;64.89;101519.84;5047024;28;20029;-45
2022/07/21 00:53:25;;;;;;;4.75;2.22;;;;;;;16.84;64.33;101527.84;5048644;28;20025;-46
2022/07/21 00:55:51;;;;;;;6.13;1.98;;;;;;;16.84;64.68;101516.19;5053839;28;20052;-47
2022/07/21 00:58:18;;;;;;;2.60;1.45;;;;;;;16.82;65.20;101513.72;5048814;28;20094;-44
2022/07/21 01:00:44;;;;;;;3.92;1.50;;;;;;;16.72;64.49;101512.63;5052986;28;20033;-47
2022/07/21 01:03:10;;;;;;;4.65;2.30;;;;;;;16.88;64.82;101528.22;5053464;28;20469;-45
2022/07/21 01:05:36;;;;;;;5.00;2.00;;;;;;;16.81;64.79;101530.97;5035035;28;20683;-47
2022/07/21 01:08:03;;;;;;;7.10;2.00;;;;;;;16.66;65.20;101530.56;5042057;28;20071;-44
2022/07/21 01:10:31;;;;;;;5.07;1.77;;;;;;;16.45;65.35;101536.47;5046099;28;20118;-44
2022/07/21 01:12:59;;;;;;;6.55;2.25;;;;;;;16.35;65.83;101528.91;5052923;28;20366;-46
2022/07/21 01:15:26;;;;;;;5.07;1.98;;;;;;;16.34;66.53;101538.88;5054082;28;20054;-47
2022/07/21 01:17:53;;;;;;;2.35;1.80;;;;;;;16.18;66.59;101530.56;5053003;28;20064;-50
2022/07/21 01:20:22;;;;;;;6.50;1.98;;;;;;;16.02;67.40;101540.91;5053250;28;20032;-47
2022/07/21 01:22:52;;;;;;;6.85;2.22;;;;;;;16.00;68.01;101536.81;5034754;28;20028;-43
2022/07/21 01:25:20;;;;;;;4.25;1.60;;;;;;;16.04;67.83;101524.47;5052734;28;20032;-45
2022/07/21 01:27:46;;;;;;;4.15;1.70;;;;;;;15.90;68.18;101523.81;5052908;28;20106;-44
2022/07/21 01:30:13;;;;;;;4.18;1.92;;;;;;;15.80;68.49;101515.41;5052967;28;20029;-44
2022/07/21 01:32:41;;;;;;;10.43;2.47;;;;;;;15.86;68.28;101517.22;5052590;28;20033;-46
2022/07/21 01:35:10;;;;;;;5.15;2.05;;;;;;;15.58;69.05;101523.06;5052547;28;20067;-43
2022/07/21 01:37:39;;;;;;;3.88;2.10;;;;;;;15.58;69.24;101514.97;5042050;28;20025;-46
2022/07/21 01:42:52;;;;;;;4.38;2.30;;;;;;;15.66;69.39;101505.81;5052883;28;20120;-46
2022/07/21 01:45:19;;;;;;;2.80;1.48;;;;;;;15.68;68.72;101507.22;5041861;28;20456;-46
2022/07/21 01:47:45;;;;;;;4.28;1.60;;;;;;;15.81;68.20;101515.19;5048780;28;20017;-45
2022/07/21 01:50:12;;;;;;;3.15;1.83;;;;;;;15.69;68.37;101508.88;5047026;28;20084;-46
2022/07/21 01:52:38;;;;;;;6.28;1.92;;;;;;;15.47;69.08;101503.03;5046066;28;20036;-43
2022/07/21 01:55:05;;;;;;;5.65;1.83;;;;;;;15.36;69.82;101509.16;5049185;28;20044;-47
2022/07/21 01:57:31;;;;;;;3.75;1.58;;;;;;;15.26;70.14;101517.75;5050482;28;20067;-49
2022/07/21 01:59:57;;;;;;;5.55;1.80;;;;;;;15.13;70.46;101503.56;5052437;28;20025;-48
2022/07/21 02:02:23;;;;;;;4.38;1.55;;;;;;;15.09;70.76;101518.53;5052249;28;20021;-48
2022/07/21 02:04:50;;;;;;;3.83;1.98;;;;;;;14.89;71.55;101524.91;5049419;28;20110;-45
2022/07/21 02:07:16;;;;;;;5.18;1.80;;;;;;;14.82;72.33;101518.69;5051262;28;20072;-46
2022/07/21 02:09:43;;;;;;;3.13;1.67;;;;;;;14.89;71.60;101503.34;5051956;28;20032;-45
2022/07/21 02:12:09;;;;;;;4.28;1.88;;;;;;;14.84;71.68;101505.03;5052212;28;20044;-47
2022/07/21 02:14:35;;;;;;;5.15;1.80;;;;;;;14.95;71.81;101507.84;5025859;28;20055;-45
2022/07/21 02:17:02;;;;;;;4.07;1.80;;;;;;;15.06;70.85;101503.63;5049753;28;20025;-43
2022/07/21 02:19:28;;;;;;;4.28;1.80;;;;;;;15.37;70.21;101510.81;5051722;28;20439;-44
2022/07/21 02:21:54;;;;;;;3.63;1.50;;;;;;;15.71;69.18;101511.34;5051843;28;20028;-43
2022/07/21 02:24:20;;;;;;;3.70;1.90;;;;;;;16.06;67.86;101504.31;5034594;28;20123;-46
2022/07/21 02:26:46;;;;;;;3.15;1.52;;;;;;;16.10;67.14;101515.47;5072165;28;20046;-43
2022/07/21 02:29:13;;;;;;;7.53;2.00;;;;;;;16.16;66.89;101519.16;5071753;28;20028;-43
2022/07/21 02:31:39;;;;;;;4.43;1.77;;;;;;;16.20;66.69;101514.94;5072120;28;20032;-47
2022/07/21 02:34:06;;;;;;;2.95;1.70;;;;;;;16.24;66.48;101508.88;5068939;28;20048;-46
2022/07/21 02:36:33;;;;;;;4.10;1.52;;;;;;;16.26;66.53;101514.03;5051654;28;20028;-45
2022/07/21 02:38:59;;;;;;;5.32;1.70;;;;;;;16.12;66.76;101507.16;5051389;28;20025;-44
2022/07/21 02:41:25;;;;;;;1.70;1.33;;;;;;;16.08;67.27;101514.88;5045075;28;20076;-46
2022/07/21 02:43:52;;;;;;;4.60;1.67;;;;;;;15.95;67.54;101512.34;5031502;28;20107;-44
2022/07/21 02:46:18;;;;;;;3.97;1.50;;;;;;;15.85;67.92;101515.56;5038102;28;20043;-44
2022/07/21 02:48:44;;;;;;;3.40;1.60;;;;;;;15.71;68.36;101517.59;5057754;28;20024;-47
2022/07/21 02:51:10;;;;;;;4.10;1.90;;;;;;;15.33;69.83;101525.81;5071202;28;20030;-43
2022/07/21 02:53:36;;;;;;;4.57;1.83;;;;;;;15.21;70.51;101522.16;5048772;22;20046;-45
2022/07/21 02:56:03;;;;;;;4.00;2.15;;;;;;;15.10;70.84;101528.25;5031234;28;20485;-44
2022/07/21 02:58:30;;;;;;;6.57;1.83;;;;;;;14.73;72.13;101526.25;5031496;28;20075;-45
2022/07/21 03:01:07;;;;;;;3.38;1.75;;;;;;;14.51;73.10;101530.31;5018026;28;20046;-46
2022/07/21 03:03:35;;;;;;;4.55;2.40;;;;;;;14.43;73.83;101531.31;5012121;28;20061;-42
2022/07/21 03:06:03;;;;;;;4.38;2.30;;;;;;;14.27;74.66;101529.16;5011514;28;20026;-43
2022/07/21 03:08:29;;;;;;;3.45;2.00;;;;;;;14.22;74.87;101528.97;5023635;28;20109;-44
2022/07/21 03:10:55;;;;;;;4.60;1.95;;;;;;;14.07;75.51;101525.69;5031676;28;20027;-47
2022/07/21 03:13:22;;;;;;;3.60;1.98;;;;;;;14.12;75.43;101533.97;5031183;28;20424;-43
2022/07/21 03:15:49;;;;;;;4.65;1.90;;;;;;;13.95;76.15;101534.44;5037064;28;20051;-43
2022/07/21 03:18:15;;;;;;;7.25;2.20;;;;;;;13.97;76.36;101528.81;5035062;28;20064;-45
2022/07/21 03:20:43;;;;;;;4.45;1.90;;;;;;;13.90;76.71;101525.34;5025127;28;20026;-46
2022/07/21 03:23:09;;;;;;;2.60;2.33;;;;;;;13.82;76.88;101533.63;5030174;28;20056;-43
2022/07/21 03:25:36;;;;;;;6.40;2.83;;;;;;;13.64;77.80;101531.59;5033233;28;20129;-44
2022/07/21 03:28:03;;;;;;;5.35;2.50;;;;;;;13.71;77.66;101532.41;5031671;28;20040;-46
2022/07/21 03:30:30;;;;;;;4.70;2.15;;;;;;;13.74;77.53;101538.19;5028271;28;20061;-43
2022/07/21 03:32:57;;;;;;;4.82;2.13;;;;;;;13.79;77.26;101534.06;5034301;28;20026;-46
2022/07/21 03:35:23;;;;;;;3.83;2.10;;;;;;;13.69;77.88;101534.47;5034057;28;20110;-43
2022/07/21 03:37:58;;;;;;;4.70;2.10;;;;;;;13.73;77.65;101541.09;5032253;28;20168;-43
2022/07/21 03:40:27;;;;;;;6.95;2.25;;;;;;;13.71;77.71;101538.63;5031531;28;20044;-44
2022/07/21 03:42:56;;;;;;;5.70;2.10;;;;;;;13.63;78.08;101535.31;5016511;28;20030;-44
2022/07/21 03:45:23;;;;;;;4.57;2.25;;;;;;;13.55;77.92;101533.69;5023437;28;20428;-44
2022/07/21 03:47:49;;;;;;;5.05;2.40;;;;;;;13.60;77.84;101533.88;5030008;28;20022;-44
2022/07/21 03:50:18;;;;;;;5.40;2.13;;;;;;;13.50;77.96;101532.66;5034878;28;20028;-43
2022/07/21 03:52:47;;;;;;;3.67;2.20;;;;;;;13.53;78.04;101526.84;5032624;28;20494;-45
2022/07/21 03:55:17;;;;;;;4.95;2.30;;;;;;;13.51;78.52;101532.44;5034501;28;20021;-42
2022/07/21 03:57:46;;;;;;;4.82;2.10;;;;;;;13.36;79.12;101538.03;5028869;28;20486;-46
2022/07/21 04:00:20;;;;;;;4.28;1.92;;;;;;;13.37;79.01;101536.16;5034724;28;20030;-43
2022/07/21 04:02:47;;;;;;;1.98;1.25;;;;;;;13.43;78.82;101519.19;5028043;28;20466;-42
2022/07/21 04:05:15;;;;;;;2.65;1.65;;;;;;;13.30;79.49;101529.97;5028558;28;20037;-42
2022/07/21 04:07:44;;;;;;;3.22;1.60;;;;;;;13.31;79.47;101532.44;5032347;28;20026;-46
2022/07/21 04:10:11;;;;;;;4.05;1.85;;;;;;;13.24;79.69;101525.41;5016762;28;20120;-46
2022/07/21 04:12:38;;;;;;;5.15;1.60;;;;;;;13.30;79.61;101533.47;5028595;28;20549;-44
2022/07/21 04:15:06;;;;;;;6.03;1.58;;;;;;;13.27;80.01;101530.38;5031530;28;20027;-46
2022/07/21 04:17:33;;;;;;;2.92;1.52;;;;;;;13.21;80.12;101521.25;5034305;28;20525;-43
2022/07/21 04:19:59;;;;;;;3.20;1.23;;;;;;;13.30;79.87;101530.78;5030450;28;20041;-45
2022/07/21 04:22:25;;;;;;;1.83;1.02;;;;;;;13.23;80.19;101526.47;5024881;28;20029;-44
2022/07/21 04:24:52;;;;;;;2.17;1.25;;;;;;;13.23;79.81;101527.28;5032101;28;20026;-47
2022/07/21 04:27:18;;;;;;;1.63;1.23;;;;;;;13.26;80.01;101534.91;5030691;28;20027;-43
2022/07/21 04:29:44;;;;;;;2.75;1.10;;;;;;;13.29;79.56;101534.50;5030596;28;20040;-42
2022/07/21 04:32:10;;;;;;;2.10;0.90;;;;;;;13.34;79.54;101539.28;5029593;28;20559;-43
2022/07/21 04:34:37;;;;;;;4.55;0.80;;;;;;;13.30;79.18;101535.34;5031780;28;20167;-45
2022/07/21 04:37:03;;;;;;;1.55;1.00;;;;;;;13.15;79.95;101532.81;5032228;28;20037;-44
2022/07/21 04:39:29;;;;;;;2.40;0.98;;;;;;;12.97;80.66;101538.78;5018633;28;20057;-47
2022/07/21 04:41:56;;;;;;;1.50;0.75;;;;;;;13.01;80.66;101552.66;5022703;28;20048;-45
2022/07/21 04:44:22;;;;;;;1.58;0.80;;;;;;;13.03;80.78;101555.97;5014394;28;20421;-45
2022/07/21 04:46:49;;;;;;;1.40;0.60;;;;;;;13.02;80.78;101559.69;5033347;28;20417;-45
2022/07/21 04:49:15;;;;;;;2.28;0.80;;;;;;;12.94;80.48;101555.34;5030863;28;20087;-45
2022/07/21 04:51:41;;;;;;;2.38;1.10;;;;;;;13.00;80.76;101562.59;5031884;28;20435;-43
2022/07/21 04:54:08;;;;;;;2.25;0.95;;;;;;;13.07;80.42;101559.91;5031920;28;20049;-45
2022/07/21 04:56:34;;;;;;;1.23;0.65;;;;;;;12.87;81.06;101562.53;5023558;28;20385;-46
2022/07/21 04:59:03;;;;;;;3.95;0.85;;;;;;;12.92;81.39;101563.59;5030400;28;20112;-43
2022/07/21 05:01:29;;;;;;;0.77;0.65;;;;;;;12.93;80.43;101559.88;5031771;28;20053;-44
2022/07/21 05:03:55;;;;;;;2.15;0.70;;;;;;;12.92;80.28;101565.44;5030735;28;20029;-46
2022/07/21 05:06:22;;;;;;;3.15;0.85;;;;;;;12.97;80.24;101562.16;5031401;28;20108;-43
2022/07/21 05:08:48;;;;;;;1.38;0.57;;;;;;;12.90;80.07;101557.59;5032085;28;20391;-45
2022/07/21 05:11:14;;;;;;;2.50;1.10;;;;;;;12.88;79.75;101559.69;5013873;28;20128;-42
2022/07/21 05:13:40;;;;;;;2.85;1.00;;;;;;;12.94;79.82;101553.47;5023100;28;20064;-44
2022/07/21 05:16:06;;;;;;;1.30;0.57;;;;;;;13.00;79.73;101559.06;5032093;28;20030;-45
2022/07/21 05:18:33;;;;;;;1.33;0.60;;;;;;;12.95;79.71;101552.44;5030771;28;20056;-44
2022/07/21 05:20:59;;;;;;;1.52;0.80;;;;;;;12.89;80.21;101566.69;5031434;28;20087;-43
2022/07/21 05:23:25;;;;;;;2.53;1.15;;;;;;;12.91;80.50;101553.88;5031027;28;20033;-42
2022/07/21 05:25:51;;;;;;;1.17;0.82;;;;;;;12.94;81.26;101561.53;5031494;28;20490;-45
2022/07/21 05:28:17;;;;;;;1.65;0.52;;;;;;;13.07;80.60;101560.72;5029442;28;20300;-42
2022/07/21 05:30:44;;;;;;;2.55;0.85;;;;;;;13.17;80.03;101563.03;5018388;28;20021;-42
2022/07/21 05:33:10;;;;;;;0.63;0.63;;;;;;;13.08;79.75;101565.06;5032040;28;20029;-44
2022/07/21 05:35:36;;;;;;;1.20;0.60;;;;;;;13.10;79.34;101560.34;5029409;28;20117;-46
2022/07/21 05:38:03;;;;;;;1.63;0.80;;;;;;;12.99;79.39;101560.91;5028293;28;20373;-42
2022/07/21 05:40:29;;;;;;;1.63;0.70;;;;;;;12.99;79.61;101554.72;5028897;28;20025;-44
2022/07/21 05:42:55;;;;;;;0.95;0.60;;;;;;;13.03;79.99;101553.28;5031208;28;20025;-42
2022/07/21 05:45:21;;;;;;;0.65;0.45;;;;;;;13.05;80.13;101553.91;5031833;28;20047;-44
2022/07/21 05:47:48;;;;;;;2.00;0.68;;;;;;;13.00;79.87;101559.06;5018285;28;20128;-46
2022/07/21 05:50:14;;;;;;;1.90;0.70;;;;;;;13.00;79.30;101556.38;5030642;28;20507;-43
2022/07/21 05:52:40;;;;;;;0.98;0.80;;;;;;;13.04;79.12;101554.91;5031271;28;20060;-44
2022/07/21 05:55:07;;;;;;;0.98;0.40;;;;;;;12.94;79.02;101539.22;5031578;28;20033;-46
2022/07/21 05:57:34;;;;;;;0.88;0.52;;;;;;;12.93;79.23;101542.91;5025568;28;20030;-44
2022/07/21 06:00:00;;;;;;;2.42;0.98;;;;;;;12.86;79.27;101539.41;5032554;28;20041;-45
2022/07/21 06:02:30;;;;;;;1.38;0.63;;;;;;;12.84;79.87;101530.72;5029649;28;20029;-42
2022/07/21 06:04:56;;;;;;;1.20;0.40;;;;;;;12.88;79.63;101542.69;5029065;28;20121;-44
2022/07/21 06:07:23;;;;;;;2.00;0.65;;;;;;;12.85;78.87;101538.56;5030465;28;20477;-43
2022/07/21 06:09:49;;;;;;;0.68;0.38;;;;;;;12.73;79.12;101540.22;5029754;28;20504;-43
2022/07/21 06:12:16;;;;;;;1.65;0.75;;;;;;;12.66;78.80;101534.81;5028178;28;20033;-43
2022/07/21 06:14:42;;;;;;;0.90;0.30;;;;;;;12.61;79.39;101545.34;5030214;28;20109;-43
2022/07/21 06:17:09;;;;;;;0.65;0.30;;;;;;;12.62;79.09;101538.13;5029543;28;20025;-42
2022/07/21 06:19:35;;;;;;;0.85;0.30;;;;;;;12.59;79.19;101543.88;5025408;28;20088;-43
2022/07/21 06:22:02;;;;;;;1.70;0.45;;;;;;;12.54;79.68;101532.91;5015018;28;20543;-43
2022/07/21 06:24:29;;;;;;;1.95;0.47;;;;;;;12.57;80.04;101529.84;5015650;28;20061;-42
2022/07/21 06:26:55;;;;;;;1.40;0.40;;;;;;;12.65;79.49;101532.31;5015927;28;20028;-42
2022/07/21 06:29:23;;;;;;;2.78;0.50;;;;;;;12.59;79.70;101525.06;5012170;28;20053;-43
2022/07/21 06:31:49;;;;;;;0.88;0.30;;;;;;;12.59;79.43;101533.13;5013652;28;20033;-43
2022/07/21 06:34:16;;;;;;;0.98;0.60;;;;;;;12.57;79.46;101517.22;5046787;28;20045;-42
2022/07/21 06:36:42;;;;;;;0.55;0.40;;;;;;;12.63;79.30;101529.84;5031310;28;20021;-43
2022/07/21 06:39:12;;;;;;;0.70;0.40;;;;;;;12.70;79.10;101529.84;5020377;28;20028;-43
2022/07/21 06:41:41;;;;;;;3.03;0.50;;;;;;;12.59;79.98;101536.66;5012159;28;20037;-43
2022/07/21 06:44:07;;;;;;;2.28;0.55;;;;;;;12.60;79.35;101532.09;5011932;28;20072;-44
2022/07/21 06:46:34;;;;;;;1.08;0.40;;;;;;;12.46;79.91;101541.16;5011634;28;20463;-42
2022/07/21 06:49:01;;;;;;;1.42;0.55;;;;;;;12.50;79.98;101535.19;5010995;28;20033;-44
2022/07/21 06:51:28;;;;;;;0.88;0.38;;;;;;;12.42;80.33;101527.28;5011988;28;20382;-44
2022/07/21 06:53:54;;;;;;;1.13;0.70;;;;;;;12.57;80.13;101529.84;5011564;28;20049;-42
2022/07/21 06:56:20;;;;;;;1.58;0.70;;;;;;;12.51;80.97;101530.66;5024193;28;20029;-43
2022/07/21 06:58:47;;;;;;;1.95;0.55;;;;;;;12.51;80.98;101519.91;5031597;28;20047;-43
2022/07/21 07:01:16;;;;;;;1.83;0.50;;;;;;;12.54;80.26;101522.16;5033089;28;20021;-43
2022/07/21 07:03:43;;;;;;;0.70;0.40;;;;;;;12.46;80.21;101522.38;5030891;28;20087;-44
2022/07/21 07:06:11;;;;;;;1.13;0.40;;;;;;;12.51;79.71;101525.28;5028771;28;20032;-46
2022/07/21 07:08:38;;;;;;;2.10;0.50;;;;;;;12.45;79.61;101521.53;5031440;28;20022;-43
2022/07/21 07:11:05;;;;;;;1.52;0.70;;;;;;;12.35;79.94;101524.59;5025559;28;20034;-46
2022/07/21 07:13:31;;;;;;;1.17;0.65;;;;;;;12.37;79.84;101519.00;5024513;28;20117;-44
2022/07/21 07:15:57;;;;;;;1.15;0.40;;;;;;;12.20;80.75;101531.97;5024127;28;20418;-46
2022/07/21 07:18:24;;;;;;;1.30;0.50;;;;;;;12.20;80.76;101526.59;5018503;28;20393;-43
2022/07/21 07:20:51;;;;;;;0.93;0.60;;;;;;;12.28;80.66;101513.00;5029668;28;20096;-43
2022/07/21 07:23:18;;;;;;;0.60;0.50;;;;;;;12.42;80.36;101511.19;5028962;28;20040;-43
2022/07/21 07:25:45;;;;;;;1.25;0.80;;;;;;;12.42;80.55;101516.56;5028948;28;20025;-43
2022/07/21 07:28:12;;;;;;;1.48;0.60;;;;;;;12.35;81.06;101521.91;5025809;28;20042;-43
2022/07/21 07:30:38;;;;;;;1.00;0.50;;;;;;;12.36;80.75;101526.25;5028993;28;20040;-45
2022/07/21 07:33:05;;;;;;;1.67;0.85;;;;;;;12.30;80.93;101529.72;5029580;28;20133;-44
2022/07/21 07:35:31;;;;;;;1.30;0.47;;;;;;;12.36;80.42;101525.41;5028273;28;20083;-43
2022/07/21 07:37:57;;;;;;;0.68;0.30;;;;;;;12.46;80.56;101528.56;5029283;28;20040;-46
2022/07/21 07:40:24;;;;;;;1.00;0.50;;;;;;;12.49;80.29;101514.72;5028133;28;20037;-43
2022/07/21 07:42:50;;;;;;;1.98;0.80;;;;;;;12.50;80.21;101519.06;5028931;28;20086;-43
2022/07/21 07:45:17;;;;;;;0.88;0.50;;;;;;;12.41;80.34;101521.09;5024029;28;20034;-43
2022/07/21 07:47:44;;;;;;;0.90;0.70;;;;;;;12.42;80.24;101520.06;5023310;28;20489;-45
2022/07/21 07:50:12;;;;;;;1.92;0.95;;;;;;;12.50;79.93;101512.88;5029019;28;20060;-45
2022/07/21 07:52:40;;;;;;;1.25;1.02;;;;;;;12.47;80.02;101518.66;5027201;28;20413;-43
2022/07/21 07:55:10;;;;;;;1.23;0.88;;;;;;;12.54;79.76;101511.44;5030053;28;20037;-44
2022/07/21 07:57:37;;;;;;;0.70;0.70;;;;;;;12.53;79.92;101515.97;5027041;28;20061;-43
2022/07/21 08:00:08;;;;;;;0.63;0.55;;;;;;;12.60;79.49;101519.53;5025964;28;20033;-43
2022/07/21 08:02:35;;;;;;;1.70;0.50;;;;;;;12.58;79.70;101504.63;5032086;28;20080;-44
2022/07/21 08:05:01;;;;;;;1.92;0.60;;;;;;;12.64;79.62;101499.25;5032629;28;20041;-43
2022/07/21 08:07:28;;;;;;;0.43;0.40;;;;;;;12.52;79.99;101500.06;5032330;28;20036;-44
2022/07/21 08:09:54;;;;;;;0.85;0.57;;;;;;;12.51;80.53;101504.63;5033292;28;20029;-47
2022/07/21 08:12:20;;;;;;;0.68;0.65;;;;;;;12.54;80.49;101503.38;5030572;28;20394;-43
2022/07/21 08:14:46;;;;;;;1.20;0.47;;;;;;;12.55;80.33;101502.38;5032374;28;20029;-45
2022/07/21 08:17:13;;;;;;;0.75;0.50;;;;;;;12.63;80.29;101512.91;5022188;28;20029;-47
2022/07/21 08:19:39;;;;;;;1.45;0.60;;;;;;;12.66;80.14;101505.28;5026091;28;20104;-44
2022/07/21 08:22:05;;;;;;;1.75;0.57;;;;;;;12.58;80.02;101507.31;5025023;28;20104;-43
2022/07/21 08:24:31;;;;;;;0.70;0.50;;;;;;;12.56;80.29;101507.53;5029101;28;20037;-43
2022/07/21 08:26:57;;;;;;;1.40;0.70;;;;;;;12.60;80.09;101503.41;5033643;28;20128;-43
2022/07/21 08:29:24;;;;;;;2.20;1.10;;;;;;;12.53;80.67;101504.41;5032411;28;20036;-47
2022/07/21 08:31:50;;;;;;;2.47;1.35;;;;;;;12.65;80.31;101505.47;5030522;28;20029;-43
2022/07/21 08:34:16;;;;;;;1.38;0.70;;;;;;;12.55;80.92;101503.19;5029805;28;20029;-45
2022/07/21 08:36:42;;;;;;;0.82;0.52;;;;;;;12.55;80.71;101503.19;5031098;28;20422;-45
2022/07/21 08:39:08;;;;;;;0.75;0.50;;;;;;;12.54;80.70;101503.38;5032277;28;20037;-46
2022/07/21 08:41:37;;;;;;;2.53;0.57;;;;;;;12.61;80.11;101504.22;5031958;28;20033;-43
2022/07/21 08:44:03;;;;;;;1.58;0.60;;;;;;;12.60;80.26;101499.88;5030159;28;20308;-43
2022/07/21 08:46:32;;;;;;;0.75;0.60;;;;;;;12.57;80.21;101497.59;5033595;28;20036;-43
2022/07/21 08:49:02;;;;;;;0.65;0.50;;;;;;;12.59;80.04;101506.28;5031699;28;20418;-43
2022/07/21 08:51:34;;;;;;;2.38;0.98;;;;;;;12.54;80.14;101504.19;5031925;28;20021;-43
2022/07/21 08:54:00;;;;;;;1.20;0.80;;;;;;;12.57;80.17;101509.19;5028106;28;20134;-43
2022/07/21 08:56:27;;;;;;;1.48;0.50;;;;;;;12.58;79.87;101502.78;5033135;28;20025;-43
2022/07/21 08:58:53;;;;;;;1.23;0.63;;;;;;;12.58;79.94;101512.69;5029940;28;20117;-44
2022/07/21 09:01:20;;;;;;;2.03;0.40;;;;;;;12.55;79.96;101500.50;5033734;28;20033;-43
2022/07/21 09:03:46;;;;;;;0.60;0.30;;;;;;;12.53;79.58;101496.34;5029306;28;20034;-44
2022/07/21 09:06:15;;;;;;;1.80;0.85;;;;;;;12.57;79.29;101495.75;5033340;28;20145;-43
2022/07/21 09:08:51;;;;;;;1.27;0.65;;;;;;;12.61;79.74;101499.69;5012187;28;20481;-43
2022/07/21 09:11:21;;;;;;;0.90;0.50;;;;;;;12.60;79.96;101489.13;5026497;28;20083;-43
2022/07/21 09:14:04;;;;;;;1.20;0.70;;;;;;;12.54;80.18;101489.94;5028377;28;20026;-43
2022/07/21 09:16:37;;;;;;;0.88;0.57;;;;;;;12.59;79.74;101474.88;5022692;28;20033;-45
2022/07/21 09:19:05;;;;;;;1.88;0.57;;;;;;;12.67;79.51;101479.25;5030186;28;20390;-44
2022/07/21 09:21:35;;;;;;;0.60;0.50;;;;;;;12.74;79.27;101471.19;5013694;28;20030;-43
2022/07/21 09:24:20;;;;;;;1.52;0.70;;;;;;;12.69;79.63;101477.16;5023078;28;20033;-43
2022/07/21 09:27:32;;;;;;;0.65;0.50;;;;;;;12.83;79.66;101468.13;5030993;28;20031;-46
2022/07/21 09:30:00;;;;;;;1.33;0.70;;;;;;;12.91;79.28;101473.28;5022689;28;20041;-45
2022/07/21 09:32:33;;;;;;;2.30;0.68;;;;;;;12.83;79.61;101465.44;5031282;28;20036;-43
2022/07/21 09:35:14;;;;;;;0.88;0.50;;;;;;;12.74;80.00;101466.66;5030709;28;20045;-43
2022/07/21 09:37:42;;;;;;;2.40;0.70;;;;;;;12.73;79.89;101469.53;5031045;28;20094;-46
2022/07/21 09:40:13;;;;;;;1.35;0.43;;;;;;;12.79;79.36;101466.84;5030792;28;20036;-45
2022/07/21 09:42:49;;;;;;;1.30;0.60;;;;;;;12.65;79.50;101476.75;5030540;28;20029;-46
2022/07/21 09:45:17;;;;;;;2.08;0.60;;;;;;;12.66;79.50;101473.06;5019913;28;20109;-43
2022/07/21 09:47:46;;;;;;;3.33;0.60;;;;;;;12.60;79.42;101481.94;5028219;28;20045;-43
2022/07/21 09:50:15;;;;;;;0.90;0.50;;;;;;;12.66;79.32;101475.75;5030923;28;20438;-44
2022/07/21 09:52:44;;;;;;;1.75;0.65;;;;;;;12.59;79.55;101479.41;5029833;28;20124;-46
2022/07/21 09:55:15;;;;;;;0.73;0.47;;;;;;;12.46;80.08;101469.50;5030587;28;20160;-47
2022/07/21 09:57:42;;;;;;;0.60;0.50;;;;;;;12.45;80.27;101473.22;5031139;28;20458;-44
2022/07/21 10:00:12;;;;;;;1.35;0.50;;;;;;;12.40;80.20;101462.25;5029531;28;20030;-43
2022/07/21 10:02:39;;;;;;;1.98;0.70;;;;;;;12.38;79.68;101458.91;5017318;28;20533;-43
2022/07/21 10:05:08;;;;;;;0.93;0.40;;;;;;;12.37;80.01;101468.84;5030370;28;20064;-45
2022/07/21 10:07:40;;;;;;;0.65;0.40;;;;;;;12.44;79.33;101468.88;5030004;28;20022;-43
2022/07/21 10:10:07;;;;;;;1.17;0.55;;;;;;;12.31;79.75;101471.50;5032433;28;20312;-44
2022/07/21 10:12:34;;;;;;;0.60;0.40;;;;;;;12.39;79.67;101469.47;5030197;28;20091;-44
2022/07/21 10:15:00;;;;;;;0.55;0.30;;;;;;;12.28;80.08;101463.88;5025657;28;20493;-46
2022/07/21 10:17:27;;;;;;;0.80;0.50;;;;;;;12.26;80.64;101463.22;5022944;28;20037;-45
2022/07/21 10:20:14;;;;;;;1.10;0.65;;;;;;;12.36;80.52;101467.19;5029838;28;20060;-44
2022/07/21 10:23:02;;;;;;;0.57;0.43;;;;;;;12.42;80.27;101458.31;5029107;28;20072;-50
2022/07/21 10:25:29;;;;;;;1.05;0.60;;;;;;;12.41;80.49;101462.03;5031144;28;20060;-46
2022/07/21 10:28:11;;;;;;;0.70;0.52;;;;;;;12.33;80.08;101454.19;5028482;28;20029;-43
2022/07/21 10:30:42;;;;;;;1.75;0.50;;;;;;;12.31;79.86;101450.03;5020642;28;20064;-46
2022/07/21 10:33:09;;;;;;;1.00;0.60;;;;;;;12.33;79.96;101451.50;5029937;28;20033;-44
2022/07/21 10:35:39;;;;;;;1.25;0.50;;;;;;;12.40;80.00;101459.56;5023911;28;20029;-47
2022/07/21 10:38:05;;;;;;;1.20;0.55;;;;;;;12.35;80.30;101456.66;5026086;28;20083;-44
2022/07/21 10:40:32;;;;;;;1.15;0.40;;;;;;;12.35;80.67;101454.78;5031696;28;20419;-46
2022/07/21 10:43:01;;;;;;;2.08;0.80;;;;;;;12.28;81.12;101456.66;5030457;28;20083;-44
2022/07/21 10:45:31;;;;;;;0.98;0.70;;;;;;;12.35;80.25;101460.16;5029506;28;20414;-46
2022/07/21 10:47:59;;;;;;;0.82;0.82;;;;;;;12.29;80.65;101457.47;5035814;23;20120;-46
2022/07/21 10:50:35;;;;;;;0.82;0.75;;;;;;;12.37;80.94;101463.47;5029528;28;20474;-45
2022/07/21 10:53:11;;;;;;;1.55;0.75;;;;;;;12.42;80.85;101466.38;5033821;28;20124;-44
2022/07/21 10:55:45;;;;;;;2.28;0.80;;;;;;;12.43;81.05;101464.50;5039724;28;20029;-45
2022/07/21 10:58:16;;;;;;;1.20;0.80;;;;;;;12.44;80.95;101450.09;5030674;28;20599;-45
2022/07/21 11:00:54;;;;;;;1.20;1.10;;;;;;;12.58;80.40;101446.38;5029143;28;20033;-44
2022/07/21 11:03:31;;;;;;;1.80;1.27;;;;;;;12.42;80.82;101447.56;5030599;28;20037;-43
2022/07/21 11:06:09;;;;;;;3.20;1.15;;;;;;;12.42;80.56;101447.56;5012533;28;20389;-43
2022/07/21 11:08:52;;;;;;;2.75;1.00;;;;;;;12.41;80.28;101445.09;5030318;28;20055;-44
2022/07/21 11:11:26;;;;;;;0.80;0.60;;;;;;;12.41;80.72;101447.78;5021348;28;20037;-46
2022/07/21 11:14:29;;;;;;;1.38;0.82;;;;;;;12.33;80.30;101454.19;5031296;28;20034;-44
2022/07/21 11:17:01;;;;;;;1.20;0.52;;;;;;;12.48;79.90;101451.31;5026535;28;20175;-44
2022/07/21 11:19:39;;;;;;;2.13;1.92;;;;;;;12.54;79.09;101447.81;5011867;28;20203;-44
2022/07/21 11:22:20;;;;;;;2.10;0.55;;;;;;;12.46;79.25;101442.63;5011602;28;20030;-44
2022/07/21 11:24:52;;;;;;;1.70;0.70;;;;;;;12.46;79.64;101449.88;5030624;28;20049;-43
2022/07/21 11:27:23;;;;;;;0.88;0.40;;;;;;;12.45;79.01;101437.47;5039974;28;20025;-47
2022/07/21 11:29:52;;;;;;;1.52;0.80;;;;;;;12.41;79.43;101440.56;5029515;28;20080;-44
2022/07/21 11:32:20;;;;;;;1.42;0.40;;;;;;;12.33;79.70;101453.34;5013512;28;20034;-44